This is the latest recevied weather packets stored in our database for station/object WMKK. If no packets are shown the sender has not sent any weather packets the latest 1 day(s).
| Time | Temp. | Humidity | Pressure | Rain* | Wind** | Luminosity | Snow |
|---|---|---|---|---|---|---|---|
| 1836274011 | 30° C | 66% | 1011 hPa | - | 1.34 m/s, 0° | - | - |
| 1778062222 | 28.89° C | 83% | 1005 hPa | - | 1.34 m/s, 320° | - | - |
| 1778060405 | 28.89° C | 83% | 1005 hPa | - | 0 m/s | - | - |
| 1778058622 | 28.89° C | 83% | 1005 hPa | - | 0 m/s | - | - |
| 1778056804 | 28.89° C | 83% | 1005 hPa | - | 0.89 m/s, 0° | - | - |
| 1778055024 | 27.78° C | 88% | 1005 hPa | - | 1.79 m/s, 130° | - | - |
| 1778053204 | 28.89° C | 88% | 1004 hPa | - | 2.68 m/s, 140° | - | - |
| 1778051430 | 31.67° C | 66% | 1006 hPa | - | 1.79 m/s, 160° | - | - |
| 1778050207 | 32.78° C | 62% | 1006 hPa | - | 1.34 m/s, 0° | - | - |
| 1778049607 | 32.78° C | 62% | 1006 hPa | - | 1.34 m/s, 0° | - | - |
| 1778047822 | 32.78° C | 62% | 1006 hPa | - | 1.34 m/s, 0° | - | - |
| 1778046004 | 31.67° C | 66% | 1007 hPa | - | 1.34 m/s, 0° | - | - |
| 1778044221 | 31.67° C | 66% | 1007 hPa | - | 1.34 m/s, 0° | - | - |
| 1778042404 | 31.67° C | 66% | 1008 hPa | - | 1.79 m/s, 0° | - | - |
| 1778040623 | 31.67° C | 70% | 1008 hPa | - | 1.79 m/s, 0° | - | - |
| 1778038804 | 31.67° C | 70% | 1008 hPa | - | 1.34 m/s, 0° | - | - |
| 1778037028 | 30.56° C | 74% | 1009 hPa | - | 1.34 m/s, 0° | - | - |
| 1778035207 | 30° C | 79% | 1009 hPa | - | 0.89 m/s, 0° | - | - |
| 1778033421 | 28.89° C | 79% | 1009 hPa | - | 1.34 m/s, 150° | - | - |
| 1778031604 | 27.78° C | 83% | 1009 hPa | - | 1.79 m/s, 150° | - | - |
| 1778029823 | 27.78° C | 83% | 1009 hPa | - | 1.79 m/s, 140° | - | - |
| 1778028004 | 26.67° C | 88% | 1008 hPa | - | 1.79 m/s, 140° | - | - |
| 1778026223 | 26.67° C | 88% | 1008 hPa | - | 0.89 m/s, 0° | - | - |
| 1778024404 | 26.67° C | 88% | 1007 hPa | - | 0.89 m/s, 0° | - | - |
| 1778022621 | 26.67° C | 88% | 1007 hPa | - | 0.89 m/s, 0° | - | - |
* Rain since midnight (hover to see other rain measurements)
** Current wind speed in m/s (hover to see current wind gust speed)